Terminal Aerodrome Forecast
Issued by NWS

Home | Current Version | Previous Version | Graphics & Text | Print | Product List | Glossary On
Versions: 1 2 3 4 5 6 7 8 9 10 11 12 13 14 15 16
167
FTUS43 KOAX 131120
TAFCDR
TAF
KCDR 131120Z 1312/1412 19013KT P6SM OVC013
     FM131600 21008KT P6SM OVC025
     FM131800 23012G20KT P6SM SCT025 BKN120
     FM140100 28025G37KT P6SM BKN120=

USA.gov is the U.S. government's official web portal to all federal, state and local government web resources and services.